sensor_id;sensor_type;location;lat;lon;timestamp;temperature;humidity
41668;DHT22;27356;50.920;5.350;2023-09-12T00:00:55;21.00;99.90
41668;DHT22;27356;50.920;5.350;2023-09-12T00:03:22;21.10;99.90
41668;DHT22;27356;50.920;5.350;2023-09-12T00:05:55;21.10;99.90
41668;DHT22;27356;50.920;5.350;2023-09-12T00:08:21;21.10;99.90
41668;DHT22;27356;50.920;5.350;2023-09-12T00:10:57;21.00;99.90
41668;DHT22;27356;50.920;5.350;2023-09-12T00:13:23;21.00;99.90
41668;DHT22;27356;50.920;5.350;2023-09-12T00:15:48;20.90;99.90
41668;DHT22;27356;50.920;5.350;2023-09-12T00:18:14;20.80;99.90
41668;DHT22;27356;50.920;5.350;2023-09-12T00:20:40;20.60;99.90
41668;DHT22;27356;50.920;5.350;2023-09-12T00:23:05;20.60;99.90
41668;DHT22;27356;50.920;5.350;2023-09-12T00:25:31;20.60;99.90
41668;DHT22;27356;50.920;5.350;2023-09-12T00:27:56;20.30;99.90
41668;DHT22;27356;50.920;5.350;2023-09-12T00:30:22;20.20;99.90
41668;DHT22;27356;50.920;5.350;2023-09-12T00:32:48;20.20;99.90
41668;DHT22;27356;50.920;5.350;2023-09-12T00:35:13;20.20;99.90
41668;DHT22;27356;50.920;5.350;2023-09-12T00:37:39;20.40;99.90
41668;DHT22;27356;50.920;5.350;2023-09-12T00:40:05;20.30;99.90
41668;DHT22;27356;50.920;5.350;2023-09-12T00:42:31;20.30;99.90
41668;DHT22;27356;50.920;5.350;2023-09-12T00:44:56;20.20;99.90
41668;DHT22;27356;50.920;5.350;2023-09-12T00:47:22;20.10;99.90
41668;DHT22;27356;50.920;5.350;2023-09-12T00:49:49;20.20;99.90
41668;DHT22;27356;50.920;5.350;2023-09-12T00:52:17;20.40;99.90
41668;DHT22;27356;50.920;5.350;2023-09-12T00:54:43;20.40;99.90
41668;DHT22;27356;50.920;5.350;2023-09-12T00:57:08;20.50;99.90
41668;DHT22;27356;50.920;5.350;2023-09-12T00:59:34;20.50;99.90
41668;DHT22;27356;50.920;5.350;2023-09-12T01:02:01;20.50;99.90
41668;DHT22;27356;50.920;5.350;2023-09-12T01:04:28;20.60;99.90
41668;DHT22;27356;50.920;5.350;2023-09-12T01:06:54;20.70;99.90
41668;DHT22;27356;50.920;5.350;2023-09-12T01:09:20;20.80;99.90
41668;DHT22;27356;50.920;5.350;2023-09-12T01:11:46;20.70;99.90
41668;DHT22;27356;50.920;5.350;2023-09-12T01:14:12;20.90;99.90
41668;DHT22;27356;50.920;5.350;2023-09-12T01:16:37;20.70;99.90
41668;DHT22;27356;50.920;5.350;2023-09-12T01:19:04;20.60;99.90
41668;DHT22;27356;50.920;5.350;2023-09-12T01:21:46;20.50;99.90
41668;DHT22;27356;50.920;5.350;2023-09-12T01:27:27;20.50;99.90
41668;DHT22;27356;50.920;5.350;2023-09-12T01:30:01;20.60;99.90
41668;DHT22;27356;50.920;5.350;2023-09-12T01:32:27;20.80;99.90
41668;DHT22;27356;50.920;5.350;2023-09-12T01:34:53;20.90;99.90
41668;DHT22;27356;50.920;5.350;2023-09-12T01:37:18;20.90;99.90
41668;DHT22;27356;50.920;5.350;2023-09-12T01:39:44;21.00;99.90
41668;DHT22;27356;50.920;5.350;2023-09-12T01:42:13;21.10;99.90
41668;DHT22;27356;50.920;5.350;2023-09-12T01:44:41;21.10;99.90
41668;DHT22;27356;50.920;5.350;2023-09-12T01:47:08;21.20;99.90
41668;DHT22;27356;50.920;5.350;2023-09-12T01:49:35;21.10;99.90
41668;DHT22;27356;50.920;5.350;2023-09-12T01:52:02;21.00;99.90
41668;DHT22;27356;50.920;5.350;2023-09-12T01:54:29;21.00;99.90
41668;DHT22;27356;50.920;5.350;2023-09-12T01:56:55;20.90;99.90
41668;DHT22;27356;50.920;5.350;2023-09-12T01:59:24;21.00;99.90
41668;DHT22;27356;50.920;5.350;2023-09-12T02:01:51;21.10;99.90
41668;DHT22;27356;50.920;5.350;2023-09-12T02:04:16;21.10;99.90
41668;DHT22;27356;50.920;5.350;2023-09-12T02:06:42;21.20;99.90
41668;DHT22;27356;50.920;5.350;2023-09-12T02:09:08;21.10;99.90
41668;DHT22;27356;50.920;5.350;2023-09-12T02:11:33;21.20;99.90
41668;DHT22;27356;50.920;5.350;2023-09-12T02:13:59;21.10;99.90
41668;DHT22;27356;50.920;5.350;2023-09-12T02:16:25;20.90;99.90
41668;DHT22;27356;50.920;5.350;2023-09-12T02:18:50;20.80;99.90
41668;DHT22;27356;50.920;5.350;2023-09-12T02:21:16;21.00;99.90
41668;DHT22;27356;50.920;5.350;2023-09-12T02:23:42;21.00;99.90
41668;DHT22;27356;50.920;5.350;2023-09-12T02:26:08;21.10;99.90
41668;DHT22;27356;50.920;5.350;2023-09-12T02:28:33;21.20;99.90
41668;DHT22;27356;50.920;5.350;2023-09-12T02:30:59;21.10;99.90
41668;DHT22;27356;50.920;5.350;2023-09-12T02:33:25;21.10;99.90
41668;DHT22;27356;50.920;5.350;2023-09-12T02:35:50;21.10;99.90
41668;DHT22;27356;50.920;5.350;2023-09-12T02:38:18;20.90;99.90
41668;DHT22;27356;50.920;5.350;2023-09-12T02:40:44;20.90;99.90
41668;DHT22;27356;50.920;5.350;2023-09-12T02:43:09;20.90;99.90
41668;DHT22;27356;50.920;5.350;2023-09-12T02:45:35;20.80;99.90
41668;DHT22;27356;50.920;5.350;2023-09-12T02:48:01;20.60;99.90
41668;DHT22;27356;50.920;5.350;2023-09-12T02:50:26;20.40;99.90
41668;DHT22;27356;50.920;5.350;2023-09-12T02:52:52;20.40;99.90
41668;DHT22;27356;50.920;5.350;2023-09-12T02:55:18;20.50;99.90
41668;DHT22;27356;50.920;5.350;2023-09-12T02:57:43;20.60;99.90
41668;DHT22;27356;50.920;5.350;2023-09-12T03:00:10;20.60;99.90
41668;DHT22;27356;50.920;5.350;2023-09-12T03:02:37;20.60;99.90
41668;DHT22;27356;50.920;5.350;2023-09-12T03:05:02;20.70;99.90
41668;DHT22;27356;50.920;5.350;2023-09-12T03:07:29;20.70;99.90
41668;DHT22;27356;50.920;5.350;2023-09-12T03:09:55;20.70;99.90
41668;DHT22;27356;50.920;5.350;2023-09-12T03:12:21;20.50;99.90
41668;DHT22;27356;50.920;5.350;2023-09-12T03:14:47;20.50;99.90
41668;DHT22;27356;50.920;5.350;2023-09-12T03:17:12;20.50;99.90
41668;DHT22;27356;50.920;5.350;2023-09-12T03:19:38;20.50;99.90
41668;DHT22;27356;50.920;5.350;2023-09-12T03:22:04;20.50;99.90
41668;DHT22;27356;50.920;5.350;2023-09-12T03:24:29;20.30;99.90
41668;DHT22;27356;50.920;5.350;2023-09-12T03:26:56;20.30;99.90
41668;DHT22;27356;50.920;5.350;2023-09-12T03:29:22;20.30;99.90
41668;DHT22;27356;50.920;5.350;2023-09-12T03:31:48;20.30;99.90
41668;DHT22;27356;50.920;5.350;2023-09-12T03:34:14;20.30;99.90
41668;DHT22;27356;50.920;5.350;2023-09-12T03:36:39;20.40;99.90
41668;DHT22;27356;50.920;5.350;2023-09-12T03:39:05;20.50;99.90
41668;DHT22;27356;50.920;5.350;2023-09-12T03:41:34;20.50;99.90
41668;DHT22;27356;50.920;5.350;2023-09-12T03:44:00;20.40;99.90
41668;DHT22;27356;50.920;5.350;2023-09-12T03:46:25;20.40;99.90
41668;DHT22;27356;50.920;5.350;2023-09-12T03:48:51;20.30;99.90
41668;DHT22;27356;50.920;5.350;2023-09-12T03:51:17;20.30;99.90
41668;DHT22;27356;50.920;5.350;2023-09-12T03:53:42;20.30;99.90
41668;DHT22;27356;50.920;5.350;2023-09-12T03:56:08;20.20;99.90
41668;DHT22;27356;50.920;5.350;2023-09-12T03:58:38;20.20;99.90
41668;DHT22;27356;50.920;5.350;2023-09-12T04:01:04;20.30;99.90
41668;DHT22;27356;50.920;5.350;2023-09-12T04:03:30;20.50;99.90
41668;DHT22;27356;50.920;5.350;2023-09-12T04:05:55;20.50;99.90
41668;DHT22;27356;50.920;5.350;2023-09-12T04:08:21;20.50;99.90
41668;DHT22;27356;50.920;5.350;2023-09-12T04:10:47;20.50;99.90
41668;DHT22;27356;50.920;5.350;2023-09-12T04:13:12;20.70;99.90
41668;DHT22;27356;50.920;5.350;2023-09-12T04:15:38;20.60;99.90
41668;DHT22;27356;50.920;5.350;2023-09-12T04:18:04;20.70;99.90
41668;DHT22;27356;50.920;5.350;2023-09-12T04:20:30;20.70;99.90
41668;DHT22;27356;50.920;5.350;2023-09-12T04:22:56;20.80;99.90
41668;DHT22;27356;50.920;5.350;2023-09-12T04:25:21;20.80;99.90
41668;DHT22;27356;50.920;5.350;2023-09-12T04:27:47;20.80;99.90
41668;DHT22;27356;50.920;5.350;2023-09-12T04:30:13;20.70;99.90
41668;DHT22;27356;50.920;5.350;2023-09-12T04:32:40;20.50;99.90
41668;DHT22;27356;50.920;5.350;2023-09-12T04:35:06;20.50;99.90
41668;DHT22;27356;50.920;5.350;2023-09-12T04:37:31;20.40;99.90
41668;DHT22;27356;50.920;5.350;2023-09-12T04:39:57;20.40;99.90
41668;DHT22;27356;50.920;5.350;2023-09-12T04:42:23;20.40;99.90
41668;DHT22;27356;50.920;5.350;2023-09-12T04:44:49;20.50;99.90
41668;DHT22;27356;50.920;5.350;2023-09-12T04:47:14;20.60;99.90
41668;DHT22;27356;50.920;5.350;2023-09-12T04:49:41;20.40;99.90
41668;DHT22;27356;50.920;5.350;2023-09-12T04:52:07;20.50;99.90
41668;DHT22;27356;50.920;5.350;2023-09-12T04:54:33;20.50;99.90
41668;DHT22;27356;50.920;5.350;2023-09-12T04:56:58;20.60;99.90
41668;DHT22;27356;50.920;5.350;2023-09-12T04:59:24;20.70;99.90
41668;DHT22;27356;50.920;5.350;2023-09-12T05:01:49;20.70;99.90
41668;DHT22;27356;50.920;5.350;2023-09-12T05:04:16;20.60;99.90
41668;DHT22;27356;50.920;5.350;2023-09-12T05:06:42;20.50;99.90
41668;DHT22;27356;50.920;5.350;2023-09-12T05:09:07;20.40;99.90
41668;DHT22;27356;50.920;5.350;2023-09-12T05:11:34;20.40;99.90
41668;DHT22;27356;50.920;5.350;2023-09-12T05:14:00;20.30;99.90
41668;DHT22;27356;50.920;5.350;2023-09-12T05:16:28;20.40;99.90
41668;DHT22;27356;50.920;5.350;2023-09-12T05:18:54;20.30;99.90
41668;DHT22;27356;50.920;5.350;2023-09-12T05:21:20;20.10;99.90
41668;DHT22;27356;50.920;5.350;2023-09-12T05:23:46;20.00;99.90
41668;DHT22;27356;50.920;5.350;2023-09-12T05:26:12;19.90;99.90
41668;DHT22;27356;50.920;5.350;2023-09-12T05:28:37;20.00;99.90
41668;DHT22;27356;50.920;5.350;2023-09-12T05:31:03;20.00;99.90
41668;DHT22;27356;50.920;5.350;2023-09-12T05:33:29;20.00;99.90
41668;DHT22;27356;50.920;5.350;2023-09-12T05:35:55;20.00;99.90
41668;DHT22;27356;50.920;5.350;2023-09-12T05:38:20;20.10;99.90
41668;DHT22;27356;50.920;5.350;2023-09-12T05:40:46;20.10;99.90
41668;DHT22;27356;50.920;5.350;2023-09-12T05:43:12;20.00;99.90
41668;DHT22;27356;50.920;5.350;2023-09-12T05:45:37;20.00;99.90
41668;DHT22;27356;50.920;5.350;2023-09-12T05:48:03;20.10;99.90
41668;DHT22;27356;50.920;5.350;2023-09-12T05:50:30;20.20;99.90
41668;DHT22;27356;50.920;5.350;2023-09-12T05:52:55;20.20;99.90
41668;DHT22;27356;50.920;5.350;2023-09-12T05:55:21;20.30;99.90
41668;DHT22;27356;50.920;5.350;2023-09-12T05:57:48;20.30;99.90
41668;DHT22;27356;50.920;5.350;2023-09-12T06:00:18;20.40;99.90
41668;DHT22;27356;50.920;5.350;2023-09-12T06:02:44;20.40;99.90
41668;DHT22;27356;50.920;5.350;2023-09-12T06:05:10;20.30;99.90
41668;DHT22;27356;50.920;5.350;2023-09-12T06:07:36;20.30;99.90
41668;DHT22;27356;50.920;5.350;2023-09-12T06:10:02;20.40;99.90
41668;DHT22;27356;50.920;5.350;2023-09-12T06:12:28;20.50;99.90
41668;DHT22;27356;50.920;5.350;2023-09-12T06:14:54;20.30;99.90
41668;DHT22;27356;50.920;5.350;2023-09-12T06:17:21;20.30;99.90
41668;DHT22;27356;50.920;5.350;2023-09-12T06:19:48;20.40;99.90
41668;DHT22;27356;50.920;5.350;2023-09-12T06:22:15;20.60;99.90
41668;DHT22;27356;50.920;5.350;2023-09-12T06:24:43;20.70;99.90
41668;DHT22;27356;50.920;5.350;2023-09-12T06:27:08;20.90;99.90
41668;DHT22;27356;50.920;5.350;2023-09-12T06:29:35;21.00;99.90
41668;DHT22;27356;50.920;5.350;2023-09-12T06:32:00;21.10;99.90
41668;DHT22;27356;50.920;5.350;2023-09-12T06:34:27;21.00;99.90
41668;DHT22;27356;50.920;5.350;2023-09-12T06:36:53;21.40;99.90
41668;DHT22;27356;50.920;5.350;2023-09-12T06:39:19;21.90;99.90
41668;DHT22;27356;50.920;5.350;2023-09-12T06:41:44;22.40;99.90
41668;DHT22;27356;50.920;5.350;2023-09-12T06:44:10;22.90;99.90
41668;DHT22;27356;50.920;5.350;2023-09-12T06:46:36;23.70;99.90
41668;DHT22;27356;50.920;5.350;2023-09-12T06:49:03;24.30;99.90
41668;DHT22;27356;50.920;5.350;2023-09-12T06:51:29;25.00;99.90
41668;DHT22;27356;50.920;5.350;2023-09-12T06:53:54;25.60;99.90
41668;DHT22;27356;50.920;5.350;2023-09-12T06:56:20;26.10;99.90
41668;DHT22;27356;50.920;5.350;2023-09-12T06:58:47;26.40;99.90
41668;DHT22;27356;50.920;5.350;2023-09-12T07:01:13;26.30;99.90
41668;DHT22;27356;50.920;5.350;2023-09-12T07:03:39;26.20;99.90
41668;DHT22;27356;50.920;5.350;2023-09-12T07:06:05;27.40;99.90
41668;DHT22;27356;50.920;5.350;2023-09-12T07:08:31;27.60;99.90
41668;DHT22;27356;50.920;5.350;2023-09-12T07:10:57;28.20;99.90
41668;DHT22;27356;50.920;5.350;2023-09-12T07:13:24;28.50;99.90
41668;DHT22;27356;50.920;5.350;2023-09-12T07:15:50;28.70;99.80
41668;DHT22;27356;50.920;5.350;2023-09-12T07:18:16;28.80;99.70
41668;DHT22;27356;50.920;5.350;2023-09-12T07:20:42;29.00;99.50
41668;DHT22;27356;50.920;5.350;2023-09-12T07:23:08;29.30;98.30
41668;DHT22;27356;50.920;5.350;2023-09-12T07:25:41;28.80;99.30
41668;DHT22;27356;50.920;5.350;2023-09-12T07:28:08;29.20;98.10
41668;DHT22;27356;50.920;5.350;2023-09-12T07:30:34;29.40;98.10
41668;DHT22;27356;50.920;5.350;2023-09-12T07:32:59;29.60;97.60
41668;DHT22;27356;50.920;5.350;2023-09-12T07:35:25;30.10;96.80
41668;DHT22;27356;50.920;5.350;2023-09-12T07:37:51;30.60;96.20
41668;DHT22;27356;50.920;5.350;2023-09-12T07:40:17;31.30;95.10
41668;DHT22;27356;50.920;5.350;2023-09-12T07:42:43;31.70;94.40
41668;DHT22;27356;50.920;5.350;2023-09-12T07:45:09;31.90;93.60
41668;DHT22;27356;50.920;5.350;2023-09-12T07:47:35;32.00;93.40
41668;DHT22;27356;50.920;5.350;2023-09-12T07:50:01;32.00;93.50
41668;DHT22;27356;50.920;5.350;2023-09-12T07:52:27;32.40;92.90
41668;DHT22;27356;50.920;5.350;2023-09-12T07:54:59;31.80;93.50
41668;DHT22;27356;50.920;5.350;2023-09-12T07:57:25;31.70;93.80
41668;DHT22;27356;50.920;5.350;2023-09-12T07:59:50;32.20;93.50
41668;DHT22;27356;50.920;5.350;2023-09-12T08:02:16;32.60;92.80
41668;DHT22;27356;50.920;5.350;2023-09-12T08:04:42;33.00;92.20
41668;DHT22;27356;50.920;5.350;2023-09-12T08:07:07;32.40;92.70
41668;DHT22;27356;50.920;5.350;2023-09-12T08:09:54;31.90;93.00
41668;DHT22;27356;50.920;5.350;2023-09-12T08:12:22;31.40;93.30
41668;DHT22;27356;50.920;5.350;2023-09-12T08:14:48;31.10;93.60
41668;DHT22;27356;50.920;5.350;2023-09-12T08:17:14;30.90;94.60
41668;DHT22;27356;50.920;5.350;2023-09-12T08:19:40;31.40;93.50
41668;DHT22;27356;50.920;5.350;2023-09-12T08:22:08;32.20;92.90
41668;DHT22;27356;50.920;5.350;2023-09-12T08:24:34;31.50;92.90
41668;DHT22;27356;50.920;5.350;2023-09-12T08:27:00;31.30;93.20
41668;DHT22;27356;50.920;5.350;2023-09-12T08:29:28;31.40;93.10
41668;DHT22;27356;50.920;5.350;2023-09-12T08:31:54;31.30;93.10
41668;DHT22;27356;50.920;5.350;2023-09-12T08:34:23;30.40;93.90
41668;DHT22;27356;50.920;5.350;2023-09-12T08:36:48;29.90;94.50
41668;DHT22;27356;50.920;5.350;2023-09-12T08:39:16;30.50;93.60
41668;DHT22;27356;50.920;5.350;2023-09-12T08:41:42;31.20;93.30
41668;DHT22;27356;50.920;5.350;2023-09-12T08:44:09;32.20;92.80
41668;DHT22;27356;50.920;5.350;2023-09-12T08:46:35;33.20;91.20
41668;DHT22;27356;50.920;5.350;2023-09-12T08:49:04;33.40;90.70
41668;DHT22;27356;50.920;5.350;2023-09-12T08:51:30;32.30;91.30
41668;DHT22;27356;50.920;5.350;2023-09-12T08:53:57;31.30;92.10
41668;DHT22;27356;50.920;5.350;2023-09-12T08:56:23;32.30;91.90
41668;DHT22;27356;50.920;5.350;2023-09-12T08:58:51;32.00;92.00
41668;DHT22;27356;50.920;5.350;2023-09-12T09:01:19;32.10;91.70
41668;DHT22;27356;50.920;5.350;2023-09-12T09:03:46;32.40;91.50
41668;DHT22;27356;50.920;5.350;2023-09-12T09:06:13;32.30;91.80
41668;DHT22;27356;50.920;5.350;2023-09-12T09:08:40;32.40;91.40
41668;DHT22;27356;50.920;5.350;2023-09-12T09:11:07;32.00;91.50
41668;DHT22;27356;50.920;5.350;2023-09-12T09:13:33;31.30;92.30
41668;DHT22;27356;50.920;5.350;2023-09-12T09:16:13;30.70;92.90
41668;DHT22;27356;50.920;5.350;2023-09-12T09:18:53;30.80;92.50
41668;DHT22;27356;50.920;5.350;2023-09-12T09:21:24;31.40;92.20
41668;DHT22;27356;50.920;5.350;2023-09-12T09:23:51;32.00;91.30
41668;DHT22;27356;50.920;5.350;2023-09-12T09:26:17;32.20;91.00
41668;DHT22;27356;50.920;5.350;2023-09-12T09:28:43;33.00;90.90
41668;DHT22;27356;50.920;5.350;2023-09-12T09:31:13;33.20;90.00
41668;DHT22;27356;50.920;5.350;2023-09-12T09:33:42;32.70;90.80
41668;DHT22;27356;50.920;5.350;2023-09-12T09:36:16;32.30;90.40
41668;DHT22;27356;50.920;5.350;2023-09-12T09:38:42;32.00;91.90
41668;DHT22;27356;50.920;5.350;2023-09-12T09:41:09;31.40;92.40
41668;DHT22;27356;50.920;5.350;2023-09-12T09:43:35;31.50;91.40
41668;DHT22;27356;50.920;5.350;2023-09-12T09:46:02;30.20;92.20
41668;DHT22;27356;50.920;5.350;2023-09-12T09:48:28;30.10;92.70
41668;DHT22;27356;50.920;5.350;2023-09-12T09:51:03;30.30;92.50
41668;DHT22;27356;50.920;5.350;2023-09-12T09:53:30;29.80;92.90
41668;DHT22;27356;50.920;5.350;2023-09-12T09:56:18;30.40;92.80
41668;DHT22;27356;50.920;5.350;2023-09-12T09:58:47;30.90;92.50
41668;DHT22;27356;50.920;5.350;2023-09-12T10:01:21;30.60;92.50
41668;DHT22;27356;50.920;5.350;2023-09-12T10:03:48;30.70;92.40
41668;DHT22;27356;50.920;5.350;2023-09-12T10:06:18;30.50;92.90
41668;DHT22;27356;50.920;5.350;2023-09-12T10:08:45;30.30;93.50
41668;DHT22;27356;50.920;5.350;2023-09-12T10:11:14;30.10;94.30
41668;DHT22;27356;50.920;5.350;2023-09-12T10:13:49;30.20;93.10
41668;DHT22;27356;50.920;5.350;2023-09-12T10:16:16;29.90;93.70
41668;DHT22;27356;50.920;5.350;2023-09-12T10:18:59;29.40;94.10
41668;DHT22;27356;50.920;5.350;2023-09-12T10:21:31;29.10;95.10
41668;DHT22;27356;50.920;5.350;2023-09-12T10:23:59;29.30;94.80
41668;DHT22;27356;50.920;5.350;2023-09-12T10:26:25;28.80;94.40
41668;DHT22;27356;50.920;5.350;2023-09-12T10:28:51;28.40;94.40
41668;DHT22;27356;50.920;5.350;2023-09-12T10:31:17;28.10;96.10
41668;DHT22;27356;50.920;5.350;2023-09-12T10:33:44;28.10;95.10
41668;DHT22;27356;50.920;5.350;2023-09-12T10:36:12;27.80;95.40
41668;DHT22;27356;50.920;5.350;2023-09-12T10:38:44;27.60;95.50
41668;DHT22;27356;50.920;5.350;2023-09-12T10:41:14;27.70;95.10
41668;DHT22;27356;50.920;5.350;2023-09-12T10:43:44;27.60;95.20
41668;DHT22;27356;50.920;5.350;2023-09-12T10:46:15;27.80;94.60
41668;DHT22;27356;50.920;5.350;2023-09-12T10:48:41;27.90;95.10
41668;DHT22;27356;50.920;5.350;2023-09-12T10:51:08;27.60;95.30
41668;DHT22;27356;50.920;5.350;2023-09-12T10:53:35;27.50;94.90
41668;DHT22;27356;50.920;5.350;2023-09-12T11:01:44;27.70;96.20
41668;DHT22;27356;50.920;5.350;2023-09-12T11:06:48;27.90;95.10
41668;DHT22;27356;50.920;5.350;2023-09-12T11:11:41;28.00;95.80
41668;DHT22;27356;50.920;5.350;2023-09-12T11:14:08;28.10;94.90
41668;DHT22;27356;50.920;5.350;2023-09-12T11:16:34;28.20;94.90
41668;DHT22;27356;50.920;5.350;2023-09-12T11:19:20;28.00;94.70
41668;DHT22;27356;50.920;5.350;2023-09-12T11:21:51;27.90;94.80
41668;DHT22;27356;50.920;5.350;2023-09-12T11:24:18;27.70;94.70
41668;DHT22;27356;50.920;5.350;2023-09-12T11:27:04;28.00;94.50
41668;DHT22;27356;50.920;5.350;2023-09-12T11:29:38;28.00;94.30
41668;DHT22;27356;50.920;5.350;2023-09-12T11:32:05;28.00;94.80
41668;DHT22;27356;50.920;5.350;2023-09-12T11:34:51;27.90;95.00
41668;DHT22;27356;50.920;5.350;2023-09-12T11:37:27;28.00;95.10
41668;DHT22;27356;50.920;5.350;2023-09-12T11:39:54;28.10;95.30
41668;DHT22;27356;50.920;5.350;2023-09-12T11:42:20;28.10;95.60
41668;DHT22;27356;50.920;5.350;2023-09-12T11:44:49;28.00;95.50
41668;DHT22;27356;50.920;5.350;2023-09-12T11:47:16;27.90;96.10
41668;DHT22;27356;50.920;5.350;2023-09-12T11:49:42;28.00;95.10
41668;DHT22;27356;50.920;5.350;2023-09-12T11:52:09;27.90;95.80
41668;DHT22;27356;50.920;5.350;2023-09-12T11:54:35;28.10;95.40
41668;DHT22;27356;50.920;5.350;2023-09-12T11:57:06;28.50;95.10
41668;DHT22;27356;50.920;5.350;2023-09-12T11:59:36;28.60;94.50
41668;DHT22;27356;50.920;5.350;2023-09-12T12:02:09;28.60;94.40
41668;DHT22;27356;50.920;5.350;2023-09-12T12:04:35;28.40;94.60
41668;DHT22;27356;50.920;5.350;2023-09-12T12:07:02;28.50;94.80
41668;DHT22;27356;50.920;5.350;2023-09-12T12:09:30;28.50;94.60
41668;DHT22;27356;50.920;5.350;2023-09-12T12:11:55;28.50;94.40
41668;DHT22;27356;50.920;5.350;2023-09-12T12:14:26;28.50;94.60
41668;DHT22;27356;50.920;5.350;2023-09-12T12:16:52;28.60;94.70
41668;DHT22;27356;50.920;5.350;2023-09-12T12:19:18;28.40;94.90
41668;DHT22;27356;50.920;5.350;2023-09-12T12:21:44;28.20;95.20
41668;DHT22;27356;50.920;5.350;2023-09-12T12:24:13;28.30;94.60
41668;DHT22;27356;50.920;5.350;2023-09-12T12:26:43;28.20;94.20
41668;DHT22;27356;50.920;5.350;2023-09-12T12:29:09;28.00;94.60
41668;DHT22;27356;50.920;5.350;2023-09-12T12:31:36;28.20;94.10
41668;DHT22;27356;50.920;5.350;2023-09-12T12:34:02;28.10;94.10
41668;DHT22;27356;50.920;5.350;2023-09-12T12:36:29;28.00;94.10
41668;DHT22;27356;50.920;5.350;2023-09-12T12:38:55;28.10;94.70
41668;DHT22;27356;50.920;5.350;2023-09-12T12:41:28;28.30;94.60
41668;DHT22;27356;50.920;5.350;2023-09-12T12:43:57;28.10;95.30
41668;DHT22;27356;50.920;5.350;2023-09-12T12:46:26;28.10;95.00
41668;DHT22;27356;50.920;5.350;2023-09-12T12:48:52;28.00;94.80
41668;DHT22;27356;50.920;5.350;2023-09-12T12:51:19;28.00;95.00
41668;DHT22;27356;50.920;5.350;2023-09-12T12:53:47;28.20;95.20
41668;DHT22;27356;50.920;5.350;2023-09-12T12:56:14;28.20;93.70
41668;DHT22;27356;50.920;5.350;2023-09-12T12:58:46;27.90;94.10
41668;DHT22;27356;50.920;5.350;2023-09-12T13:01:11;27.80;94.30
41668;DHT22;27356;50.920;5.350;2023-09-12T13:03:37;27.80;94.10
41668;DHT22;27356;50.920;5.350;2023-09-12T13:06:03;27.70;94.60
41668;DHT22;27356;50.920;5.350;2023-09-12T13:08:28;27.70;94.80
41668;DHT22;27356;50.920;5.350;2023-09-12T13:10:54;27.70;94.20
41668;DHT22;27356;50.920;5.350;2023-09-12T13:13:21;27.90;94.00
41668;DHT22;27356;50.920;5.350;2023-09-12T13:15:46;27.80;93.60
41668;DHT22;27356;50.920;5.350;2023-09-12T13:18:12;27.60;94.20
41668;DHT22;27356;50.920;5.350;2023-09-12T13:20:37;27.60;94.00
41668;DHT22;27356;50.920;5.350;2023-09-12T13:23:03;27.50;94.60
41668;DHT22;27356;50.920;5.350;2023-09-12T13:25:29;27.40;94.40
41668;DHT22;27356;50.920;5.350;2023-09-12T13:27:55;27.50;94.60
41668;DHT22;27356;50.920;5.350;2023-09-12T13:30:20;27.60;95.00
41668;DHT22;27356;50.920;5.350;2023-09-12T13:32:46;27.70;94.00
41668;DHT22;27356;50.920;5.350;2023-09-12T13:35:12;28.00;93.80
41668;DHT22;27356;50.920;5.350;2023-09-12T13:37:37;28.00;93.70
41668;DHT22;27356;50.920;5.350;2023-09-12T13:40:03;28.00;94.20
41668;DHT22;27356;50.920;5.350;2023-09-12T13:42:32;28.10;94.10
41668;DHT22;27356;50.920;5.350;2023-09-12T13:44:57;28.20;94.10
41668;DHT22;27356;50.920;5.350;2023-09-12T13:47:23;28.40;93.50
41668;DHT22;27356;50.920;5.350;2023-09-12T13:49:51;28.60;93.60
41668;DHT22;27356;50.920;5.350;2023-09-12T13:52:20;28.80;92.10
41668;DHT22;27356;50.920;5.350;2023-09-12T13:54:46;29.00;92.40
41668;DHT22;27356;50.920;5.350;2023-09-12T13:57:12;29.00;92.40
41668;DHT22;27356;50.920;5.350;2023-09-12T13:59:38;28.90;92.90
41668;DHT22;27356;50.920;5.350;2023-09-12T14:02:04;28.90;92.90
41668;DHT22;27356;50.920;5.350;2023-09-12T14:04:30;28.90;92.30
41668;DHT22;27356;50.920;5.350;2023-09-12T14:06:56;28.90;92.60
41668;DHT22;27356;50.920;5.350;2023-09-12T14:09:22;28.80;93.10
41668;DHT22;27356;50.920;5.350;2023-09-12T14:11:47;28.80;92.70
41668;DHT22;27356;50.920;5.350;2023-09-12T14:14:13;28.80;93.10
41668;DHT22;27356;50.920;5.350;2023-09-12T14:16:39;28.80;92.60
41668;DHT22;27356;50.920;5.350;2023-09-12T14:19:05;29.00;92.60
41668;DHT22;27356;50.920;5.350;2023-09-12T14:21:30;28.90;92.80
41668;DHT22;27356;50.920;5.350;2023-09-12T14:23:59;28.90;92.60
41668;DHT22;27356;50.920;5.350;2023-09-12T14:26:26;28.90;93.20
41668;DHT22;27356;50.920;5.350;2023-09-12T14:28:52;28.80;93.00
41668;DHT22;27356;50.920;5.350;2023-09-12T14:31:22;28.80;93.60
41668;DHT22;27356;50.920;5.350;2023-09-12T14:33:49;28.60;94.00
41668;DHT22;27356;50.920;5.350;2023-09-12T14:36:15;28.50;94.40
41668;DHT22;27356;50.920;5.350;2023-09-12T14:38:44;28.70;93.10
41668;DHT22;27356;50.920;5.350;2023-09-12T14:41:13;28.80;93.70
41668;DHT22;27356;50.920;5.350;2023-09-12T14:43:39;29.00;94.10
41668;DHT22;27356;50.920;5.350;2023-09-12T14:46:05;29.10;93.70
41668;DHT22;27356;50.920;5.350;2023-09-12T14:48:33;29.30;93.30
41668;DHT22;27356;50.920;5.350;2023-09-12T14:51:01;29.40;93.20
41668;DHT22;27356;50.920;5.350;2023-09-12T14:53:27;29.30;93.20
41668;DHT22;27356;50.920;5.350;2023-09-12T14:55:53;29.50;93.20
41668;DHT22;27356;50.920;5.350;2023-09-12T14:58:19;29.50;93.10
41668;DHT22;27356;50.920;5.350;2023-09-12T15:00:45;29.10;93.20
41668;DHT22;27356;50.920;5.350;2023-09-12T15:03:10;29.20;93.30
41668;DHT22;27356;50.920;5.350;2023-09-12T15:05:36;29.20;93.40
41668;DHT22;27356;50.920;5.350;2023-09-12T15:08:02;29.20;93.40
41668;DHT22;27356;50.920;5.350;2023-09-12T15:10:28;29.20;93.60
41668;DHT22;27356;50.920;5.350;2023-09-12T15:12:54;29.10;93.20
41668;DHT22;27356;50.920;5.350;2023-09-12T15:15:19;28.90;93.70
41668;DHT22;27356;50.920;5.350;2023-09-12T15:17:45;28.70;94.10
41668;DHT22;27356;50.920;5.350;2023-09-12T15:20:11;28.60;94.40
41668;DHT22;27356;50.920;5.350;2023-09-12T15:22:37;28.60;94.90
41668;DHT22;27356;50.920;5.350;2023-09-12T15:25:03;28.60;94.00
41668;DHT22;27356;50.920;5.350;2023-09-12T15:27:28;28.50;94.30
41668;DHT22;27356;50.920;5.350;2023-09-12T15:29:55;28.30;95.10
41668;DHT22;27356;50.920;5.350;2023-09-12T15:32:20;28.40;95.60
41668;DHT22;27356;50.920;5.350;2023-09-12T15:34:46;28.20;95.60
41668;DHT22;27356;50.920;5.350;2023-09-12T15:37:13;28.10;96.50
41668;DHT22;27356;50.920;5.350;2023-09-12T15:39:39;28.10;96.50
41668;DHT22;27356;50.920;5.350;2023-09-12T15:42:06;28.20;96.00